Time;durP1;ratioP1;P1;durP2;ratioP2;P2;SDS_P1;SDS_P2;PMS_P1;PMS_P2;Temp;Humidity;BMP_temperature;BMP_pressure;BME280_temperature;BME280_humidity;BME280_pressure;Samples;Min_cycle;Max_cycle;Signal;HPM_P1;HPM_P2
2022/07/14 00:01:38;;;;;;;15.80;3.77;;;;;;;;;;5093158;28;20676;-52
2022/07/14 00:04:04;;;;;;;17.50;3.47;;;;;;;;;;5093348;28;20668;-52
2022/07/14 00:06:32;;;;;;;14.23;3.13;;;;;;;;;;5093188;28;20199;-52
2022/07/14 00:08:58;;;;;;;13.63;3.47;;;;;;;;;;5093058;28;20222;-52
2022/07/14 00:11:24;;;;;;;15.55;3.70;;;;;;;;;;5091816;28;20430;-52
2022/07/14 00:13:50;;;;;;;13.13;3.92;;;;;;;;;;5091811;28;20416;-53
2022/07/14 00:16:16;;;;;;;10.17;3.53;;;;;;;;;;5092624;28;20194;-52
2022/07/14 00:18:45;;;;;;;12.73;3.43;;;;;;;;;;5092960;28;20252;-52
2022/07/14 00:21:11;;;;;;;13.00;3.27;;;;;;;;;;5092576;28;20981;-52
2022/07/14 00:23:38;;;;;;;13.50;3.73;;;;;;;;;;5092935;28;20199;-53
2022/07/14 00:26:04;;;;;;;10.23;3.10;;;;;;;;;;5092736;28;20214;-53
2022/07/14 00:28:30;;;;;;;16.17;3.70;;;;;;;;;;5092903;28;20215;-53
2022/07/14 00:30:57;;;;;;;9.70;2.93;;;;;;;;;;5092688;28;20650;-52
2022/07/14 00:33:24;;;;;;;12.07;3.40;;;;;;;;;;5092784;28;20274;-52
2022/07/14 00:35:50;;;;;;;11.73;3.30;;;;;;;;;;5092758;28;20195;-53
2022/07/14 00:38:16;;;;;;;12.17;2.93;;;;;;;;;;5092795;28;20676;-53
2022/07/14 00:40:43;;;;;;;12.80;3.50;;;;;;;;;;5092478;28;20219;-52
2022/07/14 00:43:09;;;;;;;12.90;3.20;;;;;;;;;;5092472;28;20248;-53
2022/07/14 00:45:35;;;;;;;16.03;3.93;;;;;;;;;;5092604;28;20199;-53
2022/07/14 00:48:01;;;;;;;11.20;3.10;;;;;;;;;;5092728;28;20726;-53
2022/07/14 00:50:27;;;;;;;8.40;3.03;;;;;;;;;;5092567;28;20226;-53
2022/07/14 00:52:53;;;;;;;13.43;3.77;;;;;;;;;;5092373;28;20195;-53
2022/07/14 00:55:19;;;;;;;11.03;3.50;;;;;;;;;;5092418;28;20222;-52
2022/07/14 00:57:46;;;;;;;15.57;3.80;;;;;;;;;;5092430;28;20220;-53
2022/07/14 01:00:13;;;;;;;14.23;3.60;;;;;;;;;;5092397;28;20248;-52
2022/07/14 01:02:40;;;;;;;9.73;3.00;;;;;;;;;;5092034;28;20226;-53
2022/07/14 01:05:07;;;;;;;11.57;3.37;;;;;;;;;;5092467;28;20195;-53
2022/07/14 01:07:33;;;;;;;9.33;3.00;;;;;;;;;;5092460;28;20206;-51
2022/07/14 01:09:59;;;;;;;13.00;3.50;;;;;;;;;;5092096;28;20546;-51
2022/07/14 01:12:25;;;;;;;10.90;3.20;;;;;;;;;;5092233;28;20216;-51
2022/07/14 01:14:52;;;;;;;14.43;3.80;;;;;;;;;;5092123;28;20199;-51
2022/07/14 01:17:18;;;;;;;11.93;3.78;;;;;;;;;;5091156;28;20398;-52
2022/07/14 01:19:47;;;;;;;13.27;3.77;;;;;;;;;;5092112;28;20205;-52
2022/07/14 01:22:14;;;;;;;9.17;3.10;;;;;;;;;;5091901;28;20309;-51
2022/07/14 01:24:40;;;;;;;12.10;3.23;;;;;;;;;;5092002;28;20551;-52
2022/07/14 01:27:06;;;;;;;11.60;3.37;;;;;;;;;;5093181;28;20199;-52
2022/07/14 01:29:32;;;;;;;8.10;3.20;;;;;;;;;;5096365;28;20264;-51
2022/07/14 01:31:59;;;;;;;10.03;3.17;;;;;;;;;;5096189;28;20559;-51
2022/07/14 01:34:25;;;;;;;16.50;3.77;;;;;;;;;;5096127;28;20660;-51
2022/07/14 01:36:52;;;;;;;9.77;2.70;;;;;;;;;;5096013;28;20288;-52
2022/07/14 01:39:20;;;;;;;11.93;3.10;;;;;;;;;;5096268;28;20604;-51
2022/07/14 01:41:46;;;;;;;9.40;3.30;;;;;;;;;;5095851;28;20229;-51
2022/07/14 01:44:12;;;;;;;9.90;3.27;;;;;;;;;;5096057;28;20252;-51
2022/07/14 01:46:38;;;;;;;10.17;3.10;;;;;;;;;;5095849;28;20202;-52
2022/07/14 01:49:05;;;;;;;13.37;3.17;;;;;;;;;;5095980;28;20202;-52
2022/07/14 01:51:31;;;;;;;11.80;3.60;;;;;;;;;;5095907;28;20191;-51
2022/07/14 01:53:57;;;;;;;14.13;3.50;;;;;;;;;;5095765;28;20206;-51
2022/07/14 01:56:24;;;;;;;13.47;3.37;;;;;;;;;;5095719;28;20637;-52
2022/07/14 01:58:50;;;;;;;15.23;3.10;;;;;;;;;;5095615;28;20704;-54
2022/07/14 02:04:01;;;;;;;11.53;3.33;;;;;;;;;;5095538;28;20209;-51
2022/07/14 02:06:28;;;;;;;12.63;3.80;;;;;;;;;;5095416;28;20191;-54
2022/07/14 02:08:55;;;;;;;15.13;3.70;;;;;;;;;;5095354;28;20194;-53
2022/07/14 02:14:07;;;;;;;14.67;3.60;;;;;;;;;;5095418;28;20616;-52
2022/07/14 02:16:33;;;;;;;12.60;3.70;;;;;;;;;;5095456;28;20214;-54
2022/07/14 02:19:00;;;;;;;8.67;3.20;;;;;;;;;;5095214;28;20567;-52
2022/07/14 02:21:26;;;;;;;13.23;3.43;;;;;;;;;;5094382;28;20321;-52
2022/07/14 02:23:52;;;;;;;10.37;3.40;;;;;;;;;;5093854;28;20202;-53
2022/07/14 02:26:18;;;;;;;11.23;3.00;;;;;;;;;;5094039;28;20202;-53
2022/07/14 02:28:45;;;;;;;13.33;3.57;;;;;;;;;;5093803;28;20542;-52
2022/07/14 02:31:12;;;;;;;9.40;3.07;;;;;;;;;;5093884;28;20201;-54
2022/07/14 02:33:38;;;;;;;11.40;3.20;;;;;;;;;;5093747;28;20237;-52
2022/07/14 02:36:05;;;;;;;10.27;3.37;;;;;;;;;;5093758;28;20203;-52
2022/07/14 02:38:31;;;;;;;9.20;2.87;;;;;;;;;;5093501;28;20191;-53
2022/07/14 02:40:57;;;;;;;10.97;3.27;;;;;;;;;;5093589;28;20210;-53
2022/07/14 02:43:24;;;;;;;10.57;3.17;;;;;;;;;;5091852;28;20223;-52
2022/07/14 02:45:50;;;;;;;10.57;3.40;;;;;;;;;;5093559;28;20210;-52
2022/07/14 02:48:17;;;;;;;9.40;3.10;;;;;;;;;;5093692;28;20198;-52
2022/07/14 02:50:43;;;;;;;10.17;3.17;;;;;;;;;;5093527;28;20575;-52
2022/07/14 02:53:09;;;;;;;10.70;3.03;;;;;;;;;;5093555;28;20191;-53
2022/07/14 02:55:39;;;;;;;12.27;3.57;;;;;;;;;;5093478;28;20195;-53
2022/07/14 02:58:05;;;;;;;12.07;3.33;;;;;;;;;;5093516;28;20199;-53
2022/07/14 03:00:31;;;;;;;10.83;3.47;;;;;;;;;;5093438;28;20225;-54
2022/07/14 03:02:57;;;;;;;11.10;3.30;;;;;;;;;;5093143;28;20305;-52
2022/07/14 03:05:25;;;;;;;6.83;2.87;;;;;;;;;;5092813;28;20570;-52
2022/07/14 03:07:51;;;;;;;10.27;3.37;;;;;;;;;;5093107;28;20207;-53
2022/07/14 03:10:17;;;;;;;13.23;3.93;;;;;;;;;;5093363;28;20201;-53
2022/07/14 03:12:44;;;;;;;9.80;3.40;;;;;;;;;;5093228;28;20710;-53
2022/07/14 03:15:10;;;;;;;8.47;3.03;;;;;;;;;;5093275;28;20194;-52
2022/07/14 03:17:38;;;;;;;8.80;3.50;;;;;;;;;;5093142;28;20606;-52
2022/07/14 03:20:06;;;;;;;7.40;3.17;;;;;;;;;;5093089;28;20695;-52
2022/07/14 03:22:34;;;;;;;8.47;3.53;;;;;;;;;;5093771;28;20227;-51
2022/07/14 03:25:00;;;;;;;11.50;3.97;;;;;;;;;;5092209;28;20625;-51
2022/07/14 03:27:26;;;;;;;10.90;3.50;;;;;;;;;;5094024;28;20199;-52
2022/07/14 03:29:52;;;;;;;7.10;3.10;;;;;;;;;;5093779;28;20191;-51
2022/07/14 03:32:18;;;;;;;9.50;3.10;;;;;;;;;;5093766;28;20199;-51
2022/07/14 03:34:44;;;;;;;7.23;2.90;;;;;;;;;;5093606;28;20198;-51
2022/07/14 03:37:10;;;;;;;6.90;2.70;;;;;;;;;;5093759;28;20639;-51
2022/07/14 03:39:38;;;;;;;11.50;3.03;;;;;;;;;;5093698;28;20193;-52
2022/07/14 03:42:04;;;;;;;8.23;3.37;;;;;;;;;;5093603;28;20214;-51
2022/07/14 03:44:30;;;;;;;9.63;2.87;;;;;;;;;;5093749;28;20194;-51
2022/07/14 03:46:56;;;;;;;8.43;3.07;;;;;;;;;;5093543;28;20627;-51
2022/07/14 03:49:22;;;;;;;13.27;3.70;;;;;;;;;;5092935;28;20212;-50
2022/07/14 03:51:49;;;;;;;10.47;3.70;;;;;;;;;;5093330;28;20629;-52
2022/07/14 03:54:15;;;;;;;7.17;2.77;;;;;;;;;;5093524;28;20207;-52
2022/07/14 03:56:42;;;;;;;8.90;3.23;;;;;;;;;;5093196;28;20238;-51
2022/07/14 03:59:10;;;;;;;6.27;2.90;;;;;;;;;;5093406;28;20202;-51
2022/07/14 04:01:37;;;;;;;8.37;3.10;;;;;;;;;;5093279;28;20218;-52
2022/07/14 04:04:03;;;;;;;10.90;3.33;;;;;;;;;;5093227;28;20610;-51
2022/07/14 04:06:29;;;;;;;12.07;3.63;;;;;;;;;;5093366;28;20252;-51
2022/07/14 04:08:55;;;;;;;13.77;3.60;;;;;;;;;;5093124;28;20198;-52
2022/07/14 04:11:24;;;;;;;9.47;3.73;;;;;;;;;;5093168;28;20252;-50
2022/07/14 04:13:52;;;;;;;10.03;3.30;;;;;;;;;;5092996;28;20577;-52
2022/07/14 04:16:18;;;;;;;12.13;4.00;;;;;;;;;;5093215;28;20203;-51
2022/07/14 04:18:44;;;;;;;10.77;3.87;;;;;;;;;;5092975;28;20566;-51
2022/07/14 04:21:10;;;;;;;10.80;3.50;;;;;;;;;;5092614;28;20262;-51
2022/07/14 04:23:36;;;;;;;11.47;3.67;;;;;;;;;;5092853;28;20709;-51
2022/07/14 04:26:03;;;;;;;9.93;3.33;;;;;;;;;;5092765;28;20665;-51
2022/07/14 04:28:29;;;;;;;14.33;4.20;;;;;;;;;;5092869;28;20202;-52
2022/07/14 04:30:56;;;;;;;9.23;3.70;;;;;;;;;;5092689;28;20198;-51
2022/07/14 04:33:23;;;;;;;9.30;3.37;;;;;;;;;;5092816;28;20533;-52
2022/07/14 04:35:50;;;;;;;8.73;4.20;;;;;;;;;;5092561;28;20546;-51
2022/07/14 04:38:16;;;;;;;10.83;3.50;;;;;;;;;;5092808;28;20294;-52
2022/07/14 04:40:46;;;;;;;8.50;3.47;;;;;;;;;;5092480;28;20719;-52
2022/07/14 04:43:12;;;;;;;10.40;3.90;;;;;;;;;;5092730;28;20218;-52
2022/07/14 04:45:38;;;;;;;7.17;3.40;;;;;;;;;;5092244;28;20301;-51
2022/07/14 04:48:05;;;;;;;14.10;4.07;;;;;;;;;;5092563;28;20202;-52
2022/07/14 04:53:17;;;;;;;9.00;3.93;;;;;;;;;;5092647;28;20255;-52
2022/07/14 04:55:43;;;;;;;9.20;3.20;;;;;;;;;;5092399;28;20199;-52
2022/07/14 04:58:09;;;;;;;11.70;4.10;;;;;;;;;;5091095;28;20206;-51
2022/07/14 05:00:35;;;;;;;10.13;3.90;;;;;;;;;;5092092;28;20214;-52
2022/07/14 05:03:01;;;;;;;11.37;3.00;;;;;;;;;;5089894;28;20329;-52
2022/07/14 05:05:28;;;;;;;11.93;3.77;;;;;;;;;;5092415;28;20744;-52
2022/07/14 05:07:54;;;;;;;11.33;3.10;;;;;;;;;;5092088;28;20195;-52
2022/07/14 05:10:20;;;;;;;12.63;3.97;;;;;;;;;;5092253;28;20684;-52
2022/07/14 05:12:46;;;;;;;9.97;3.20;;;;;;;;;;5092263;28;20237;-52
2022/07/14 05:15:12;;;;;;;7.97;2.80;;;;;;;;;;5092487;28;20202;-51
2022/07/14 05:17:38;;;;;;;11.27;3.53;;;;;;;;;;5092105;28;20298;-53
2022/07/14 05:20:04;;;;;;;7.77;3.27;;;;;;;;;;5092282;28;20277;-52
2022/07/14 05:22:36;;;;;;;8.40;3.30;;;;;;;;;;5091950;28;20240;-58
2022/07/14 05:25:05;;;;;;;8.47;2.93;;;;;;;;;;5092178;28;20620;-51
2022/07/14 05:27:30;;;;;;;12.40;3.60;;;;;;;;;;5092437;28;20199;-52
2022/07/14 05:29:56;;;;;;;11.23;3.30;;;;;;;;;;5091716;28;20608;-53
2022/07/14 05:32:22;;;;;;;9.20;3.00;;;;;;;;;;5091995;28;20281;-52
2022/07/14 05:34:49;;;;;;;9.30;2.77;;;;;;;;;;5092127;28;20195;-52
2022/07/14 05:37:15;;;;;;;8.63;3.07;;;;;;;;;;5091949;28;20660;-51
2022/07/14 05:39:42;;;;;;;8.20;3.03;;;;;;;;;;5091884;28;20206;-51
2022/07/14 05:42:08;;;;;;;10.20;3.03;;;;;;;;;;5091770;28;20211;-52
2022/07/14 05:44:35;;;;;;;10.23;2.80;;;;;;;;;;5092022;28;20252;-52
2022/07/14 05:47:01;;;;;;;10.27;2.73;;;;;;;;;;5091698;28;20221;-53
2022/07/14 05:49:27;;;;;;;9.90;2.70;;;;;;;;;;5091897;28;20199;-51
2022/07/14 05:51:53;;;;;;;15.83;2.77;;;;;;;;;;5091762;28;20836;-52
2022/07/14 05:54:19;;;;;;;7.83;3.03;;;;;;;;;;5091747;28;20203;-52
2022/07/14 05:56:46;;;;;;;6.37;2.20;;;;;;;;;;5091810;28;20194;-52
2022/07/14 05:59:12;;;;;;;5.30;2.23;;;;;;;;;;5091542;28;20205;-52
2022/07/14 06:01:38;;;;;;;12.90;2.70;;;;;;;;;;5091559;28;20560;-51
2022/07/14 06:04:04;;;;;;;10.53;2.87;;;;;;;;;;5091662;28;20199;-53
2022/07/14 06:06:30;;;;;;;8.93;2.93;;;;;;;;;;5091623;28;20603;-51
2022/07/14 06:08:57;;;;;;;8.30;2.60;;;;;;;;;;5091503;28;20270;-53
2022/07/14 06:11:22;;;;;;;6.27;2.33;;;;;;;;;;5091554;28;20253;-52
2022/07/14 06:13:50;;;;;;;7.10;2.30;;;;;;;;;;5093695;28;20195;-52
2022/07/14 06:16:16;;;;;;;6.33;2.20;;;;;;;;;;5094936;28;20207;-53
2022/07/14 06:18:42;;;;;;;5.87;1.90;;;;;;;;;;5095282;28;20211;-53
2022/07/14 06:21:11;;;;;;;8.90;2.20;;;;;;;;;;5094871;28;20238;-54
2022/07/14 06:23:37;;;;;;;9.23;2.40;;;;;;;;;;5095099;28;20254;-54
2022/07/14 06:26:07;;;;;;;9.70;2.60;;;;;;;;;;5094833;28;20212;-52
2022/07/14 06:28:33;;;;;;;5.47;2.03;;;;;;;;;;5094811;28;20203;-53
2022/07/14 06:31:00;;;;;;;12.07;2.20;;;;;;;;;;5095211;28;20696;-53
2022/07/14 06:33:26;;;;;;;5.57;1.97;;;;;;;;;;5095014;28;20198;-53
2022/07/14 06:35:52;;;;;;;6.83;2.17;;;;;;;;;;5094696;28;20578;-54
2022/07/14 06:38:18;;;;;;;9.07;2.27;;;;;;;;;;5094865;28;20288;-53
2022/07/14 06:40:44;;;;;;;5.67;1.90;;;;;;;;;;5094888;28;20239;-53
2022/07/14 06:43:10;;;;;;;6.30;1.70;;;;;;;;;;5094739;28;20568;-52
2022/07/14 06:45:36;;;;;;;5.37;1.57;;;;;;;;;;5094788;28;20199;-53
2022/07/14 06:48:04;;;;;;;5.00;1.50;;;;;;;;;;5094805;28;20565;-53
2022/07/14 06:50:30;;;;;;;9.73;2.20;;;;;;;;;;5094797;28;20295;-53
2022/07/14 06:52:56;;;;;;;5.03;2.27;;;;;;;;;;5094608;28;20193;-53
2022/07/14 06:55:22;;;;;;;7.00;2.10;;;;;;;;;;5094487;28;20258;-52
2022/07/14 06:57:48;;;;;;;5.93;1.87;;;;;;;;;;5094526;28;20650;-52
2022/07/14 07:00:15;;;;;;;5.20;1.70;;;;;;;;;;5094451;28;20216;-51
2022/07/14 07:02:41;;;;;;;4.20;1.47;;;;;;;;;;5094378;28;20228;-51
2022/07/14 07:07:56;;;;;;;6.80;1.90;;;;;;;;;;5094269;28;20217;-52
2022/07/14 07:10:22;;;;;;;6.03;1.90;;;;;;;;;;5094221;28;20561;-53
2022/07/14 07:12:48;;;;;;;3.33;1.33;;;;;;;;;;5094270;28;20205;-51
2022/07/14 07:15:14;;;;;;;5.47;2.13;;;;;;;;;;5094261;28;20205;-52
2022/07/14 07:17:40;;;;;;;6.17;1.80;;;;;;;;;;5094184;28;20695;-52
2022/07/14 07:20:09;;;;;;;5.33;1.70;;;;;;;;;;5093896;28;20712;-53
2022/07/14 07:22:36;;;;;;;5.73;2.27;;;;;;;;;;5094280;28;20230;-52
2022/07/14 07:25:03;;;;;;;5.93;1.50;;;;;;;;;;5093191;28;20264;-52
2022/07/14 07:27:29;;;;;;;6.37;1.50;;;;;;;;;;5094335;28;20601;-51
2022/07/14 07:29:55;;;;;;;6.23;2.37;;;;;;;;;;5093629;28;20200;-52
2022/07/14 07:32:22;;;;;;;6.77;1.80;;;;;;;;;;5093285;28;20191;-51
2022/07/14 07:34:48;;;;;;;6.80;2.03;;;;;;;;;;5093804;28;20211;-54
2022/07/14 07:37:14;;;;;;;6.63;1.97;;;;;;;;;;5093724;28;20221;-53
2022/07/14 07:39:41;;;;;;;4.93;1.70;;;;;;;;;;5093660;28;20634;-52
2022/07/14 07:42:07;;;;;;;4.63;1.73;;;;;;;;;;5093178;28;20210;-53
2022/07/14 07:44:34;;;;;;;4.67;1.53;;;;;;;;;;5093729;28;20222;-52
2022/07/14 07:47:00;;;;;;;4.50;1.77;;;;;;;;;;5093358;28;20206;-52
2022/07/14 07:49:27;;;;;;;6.07;2.07;;;;;;;;;;5093635;28;20198;-66
2022/07/14 07:51:57;;;;;;;4.90;1.43;;;;;;;;;;5093431;28;20551;-56
2022/07/14 07:54:23;;;;;;;4.57;1.50;;;;;;;;;;5093165;28;20232;-54
2022/07/14 07:56:50;;;;;;;5.47;1.70;;;;;;;;;;5093252;28;20199;-55
2022/07/14 07:59:16;;;;;;;5.57;1.47;;;;;;;;;;5093301;28;20195;-54
2022/07/14 08:01:42;;;;;;;4.63;1.60;;;;;;;;;;5093083;28;20567;-52
2022/07/14 08:04:09;;;;;;;5.13;1.70;;;;;;;;;;5093133;28;20213;-55
2022/07/14 08:06:35;;;;;;;3.40;1.40;;;;;;;;;;5091280;28;20224;-54
2022/07/14 08:09:02;;;;;;;5.77;1.70;;;;;;;;;;5093167;28;20199;-54
2022/07/14 08:11:28;;;;;;;3.13;1.57;;;;;;;;;;5093241;28;20191;-53
2022/07/14 08:13:55;;;;;;;5.70;2.00;;;;;;;;;;5092984;28;20600;-54
2022/07/14 08:16:21;;;;;;;5.60;1.80;;;;;;;;;;5093111;28;20203;-53
2022/07/14 08:18:49;;;;;;;3.80;1.80;;;;;;;;;;5092945;28;20206;-55
2022/07/14 08:21:15;;;;;;;5.03;1.80;;;;;;;;;;5092741;28;20323;-55
2022/07/14 08:23:41;;;;;;;3.13;1.90;;;;;;;;;;5089877;28;20273;-55
2022/07/14 08:26:07;;;;;;;3.97;1.50;;;;;;;;;;5091329;28;20661;-54
2022/07/14 08:28:33;;;;;;;3.73;1.60;;;;;;;;;;5092593;28;20199;-54
2022/07/14 08:31:00;;;;;;;5.47;2.13;;;;;;;;;;5092456;28;20197;-55
2022/07/14 08:33:26;;;;;;;3.23;1.70;;;;;;;;;;5092219;28;20685;-54
2022/07/14 08:35:52;;;;;;;5.47;2.13;;;;;;;;;;5091850;28;20199;-55
2022/07/14 08:38:18;;;;;;;6.73;2.50;;;;;;;;;;5092441;28;20200;-55
2022/07/14 08:40:44;;;;;;;6.73;2.20;;;;;;;;;;5092410;28;20584;-55
2022/07/14 08:43:11;;;;;;;4.63;2.27;;;;;;;;;;5092394;28;20231;-55
2022/07/14 08:45:41;;;;;;;5.27;2.20;;;;;;;;;;5092548;28;20206;-54
2022/07/14 08:48:08;;;;;;;3.17;2.13;;;;;;;;;;5092345;28;20198;-55
2022/07/14 08:50:37;;;;;;;4.00;2.37;;;;;;;;;;5092483;28;20210;-54
2022/07/14 08:53:03;;;;;;;6.20;2.43;;;;;;;;;;5092370;28;20193;-55
2022/07/14 08:55:30;;;;;;;4.47;2.10;;;;;;;;;;5092231;28;20283;-54
2022/07/14 08:57:56;;;;;;;5.97;2.20;;;;;;;;;;5092204;28;20607;-54
2022/07/14 09:00:22;;;;;;;5.60;2.83;;;;;;;;;;5091854;28;20306;-55
2022/07/14 09:02:49;;;;;;;5.13;2.60;;;;;;;;;;5092217;28;20235;-54
2022/07/14 09:05:17;;;;;;;3.87;1.93;;;;;;;;;;5092119;28;20197;-54
2022/07/14 09:07:43;;;;;;;3.53;1.80;;;;;;;;;;5092234;28;20281;-54
2022/07/14 09:10:10;;;;;;;4.17;1.67;;;;;;;;;;5091920;28;20433;-54
2022/07/14 09:12:37;;;;;;;3.93;1.97;;;;;;;;;;5089637;28;20284;-55
2022/07/14 09:17:52;;;;;;;4.40;2.03;;;;;;;;;;5091763;28;20255;-55
2022/07/14 09:20:20;;;;;;;9.77;2.17;;;;;;;;;;5091640;28;20194;-55
2022/07/14 09:22:46;;;;;;;8.13;2.40;;;;;;;;;;5091839;28;20225;-54
2022/07/14 09:25:13;;;;;;;6.93;2.00;;;;;;;;;;5091475;28;20679;-55
2022/07/14 09:27:39;;;;;;;4.17;1.60;;;;;;;;;;5091580;28;20305;-53
2022/07/14 09:30:06;;;;;;;4.50;1.57;;;;;;;;;;5091581;28;20197;-54
2022/07/14 09:32:42;;;;;;;5.07;1.70;;;;;;;;;;5091784;28;20198;-54
2022/07/14 09:35:08;;;;;;;6.77;1.60;;;;;;;;;;5091428;28;20198;-54
2022/07/14 09:37:37;;;;;;;4.20;1.53;;;;;;;;;;5091761;28;20277;-55
2022/07/14 09:40:03;;;;;;;4.87;1.60;;;;;;;;;;5091528;28;20209;-55
2022/07/14 09:42:44;;;;;;;5.37;1.53;;;;;;;;;;5091616;28;20268;-54
2022/07/14 09:45:11;;;;;;;4.40;1.60;;;;;;;;;;5091443;28;20307;-54
2022/07/14 09:47:51;;;;;;;4.03;1.80;;;;;;;;;;5091640;28;20207;-54
2022/07/14 09:50:31;;;;;;;5.17;1.50;;;;;;;;;;5095529;28;20558;-54
2022/07/14 09:52:58;;;;;;;4.80;2.00;;;;;;;;;;5095294;28;20278;-55
2022/07/14 09:55:25;;;;;;;3.90;1.40;;;;;;;;;;5095443;28;20221;-55
2022/07/14 09:57:52;;;;;;;4.63;1.60;;;;;;;;;;5095331;28;20276;-55
2022/07/14 10:00:19;;;;;;;3.80;1.40;;;;;;;;;;5095313;28;20210;-55
2022/07/14 10:02:46;;;;;;;5.80;1.63;;;;;;;;;;5095176;28;20292;-54
2022/07/14 10:05:12;;;;;;;5.30;1.40;;;;;;;;;;5095139;28;20256;-54
2022/07/14 10:07:41;;;;;;;4.37;1.50;;;;;;;;;;5095201;28;20549;-54
2022/07/14 10:10:09;;;;;;;5.20;1.70;;;;;;;;;;5094969;28;20196;-55
2022/07/14 10:12:36;;;;;;;3.53;1.07;;;;;;;;;;5095046;28;20205;-54
2022/07/14 10:15:03;;;;;;;3.23;1.17;;;;;;;;;;5094988;28;20199;-55
2022/07/14 10:17:30;;;;;;;7.53;1.70;;;;;;;;;;5094921;28;20193;-55
2022/07/14 10:19:56;;;;;;;3.70;1.53;;;;;;;;;;5094740;28;20681;-55
2022/07/14 10:22:22;;;;;;;5.03;1.40;;;;;;;;;;5094654;28;20252;-55
2022/07/14 10:24:50;;;;;;;4.13;1.50;;;;;;;;;;5094903;28;20230;-54
2022/07/14 10:27:20;;;;;;;2.40;1.20;;;;;;;;;;5094766;28;20683;-54
2022/07/14 10:29:48;;;;;;;3.60;1.43;;;;;;;;;;5094941;28;20205;-55
2022/07/14 10:32:21;;;;;;;3.47;1.47;;;;;;;;;;5094664;28;20196;-55
2022/07/14 10:34:53;;;;;;;3.03;1.13;;;;;;;;;;5094679;28;20698;-55
2022/07/14 10:37:22;;;;;;;4.23;1.67;;;;;;;;;;5094822;28;20214;-54
2022/07/14 10:39:49;;;;;;;4.17;1.10;;;;;;;;;;5094559;28;20197;-55
2022/07/14 10:42:18;;;;;;;5.13;1.50;;;;;;;;;;5094567;28;20232;-55
2022/07/14 10:44:46;;;;;;;3.53;1.10;;;;;;;;;;5094526;28;20212;-55
2022/07/14 10:47:13;;;;;;;2.53;1.30;;;;;;;;;;5094606;28;20198;-54
2022/07/14 10:49:59;;;;;;;3.50;1.50;;;;;;;;;;5094304;28;20577;-54
2022/07/14 10:52:26;;;;;;;3.70;1.17;;;;;;;;;;5094095;28;20687;-54
2022/07/14 10:55:07;;;;;;;3.73;1.30;;;;;;;;;;5094341;28;20198;-54
2022/07/14 10:57:33;;;;;;;4.90;1.40;;;;;;;;;;5094484;28;20205;-54
2022/07/14 11:00:01;;;;;;;5.03;1.70;;;;;;;;;;5094049;28;20249;-54
2022/07/14 11:02:33;;;;;;;3.23;1.20;;;;;;;;;;5094525;28;20224;-55
2022/07/14 11:05:12;;;;;;;2.53;1.00;;;;;;;;;;5094502;28;20204;-55
2022/07/14 11:07:56;;;;;;;4.63;1.87;;;;;;;;;;5094409;28;20693;-55
2022/07/14 11:10:41;;;;;;;3.30;1.43;;;;;;;;;;5094083;28;20207;-51
2022/07/14 11:13:09;;;;;;;3.43;1.60;;;;;;;;;;5093811;28;20188;-54
2022/07/14 11:15:40;;;;;;;5.50;1.93;;;;;;;;;;5094237;28;20282;-54
2022/07/14 11:18:26;;;;;;;3.43;1.70;;;;;;;;;;5093817;28;20222;-54
2022/07/14 11:20:55;;;;;;;3.80;1.70;;;;;;;;;;5093774;28;20243;-53
2022/07/14 11:23:22;;;;;;;3.53;1.63;;;;;;;;;;5093675;28;20227;-54
2022/07/14 11:25:49;;;;;;;3.93;1.80;;;;;;;;;;5093996;28;20195;-54
2022/07/14 11:28:34;;;;;;;3.13;1.47;;;;;;;;;;5093609;28;20205;-53
2022/07/14 11:31:10;;;;;;;3.70;1.30;;;;;;;;;;5093718;28;20552;-54
2022/07/14 11:36:17;;;;;;;5.03;1.53;;;;;;;;;;5093888;28;20203;-54
2022/07/14 11:36:23;;;;;;;3.00;1.30;;;;;;;;;;5093661;28;20275;-54
2022/07/14 11:38:49;;;;;;;3.10;1.50;;;;;;;;;;5092057;28;20194;-54
2022/07/14 11:41:15;;;;;;;4.53;1.30;;;;;;;;;;5093705;28;20202;-54
2022/07/14 11:43:43;;;;;;;5.60;1.80;;;;;;;;;;5093394;28;20298;-54
2022/07/14 11:46:11;;;;;;;3.40;1.40;;;;;;;;;;5093352;28;20270;-55
2022/07/14 11:48:38;;;;;;;2.33;1.33;;;;;;;;;;5093281;28;20199;-54
2022/07/14 11:51:05;;;;;;;3.40;1.10;;;;;;;;;;5093420;28;20191;-54
2022/07/14 11:53:31;;;;;;;3.63;1.30;;;;;;;;;;5093281;28;20637;-53
2022/07/14 11:55:59;;;;;;;6.77;1.50;;;;;;;;;;5093485;28;20205;-54
2022/07/14 11:58:25;;;;;;;5.00;1.60;;;;;;;;;;5093416;28;20524;-53
2022/07/14 12:00:54;;;;;;;2.67;1.30;;;;;;;;;;5093271;28;20279;-54
2022/07/14 12:03:23;;;;;;;3.73;1.60;;;;;;;;;;5093181;28;20723;-54
2022/07/14 12:05:52;;;;;;;7.97;1.90;;;;;;;;;;5093343;28;20202;-53
2022/07/14 12:08:22;;;;;;;3.73;1.73;;;;;;;;;;5093179;28;20661;-53
2022/07/14 12:10:49;;;;;;;4.50;1.40;;;;;;;;;;5092554;28;20209;-53
2022/07/14 12:13:16;;;;;;;2.23;1.40;;;;;;;;;;5092893;28;20718;-53
2022/07/14 12:15:42;;;;;;;3.57;1.50;;;;;;;;;;5092971;28;20212;-53
2022/07/14 12:18:09;;;;;;;6.27;1.63;;;;;;;;;;5092766;28;20563;-53
2022/07/14 12:20:40;;;;;;;3.07;1.37;;;;;;;;;;5092970;28;20229;-53
2022/07/14 12:23:06;;;;;;;3.40;1.53;;;;;;;;;;5092753;28;20220;-53
2022/07/14 12:25:33;;;;;;;3.97;1.50;;;;;;;;;;5093017;28;20293;-53
2022/07/14 12:27:59;;;;;;;3.93;1.50;;;;;;;;;;5092816;28;20301;-53
2022/07/14 12:30:25;;;;;;;2.93;1.30;;;;;;;;;;5092996;28;20202;-54
2022/07/14 12:32:52;;;;;;;3.87;1.73;;;;;;;;;;5092673;28;20212;-54
2022/07/14 12:35:19;;;;;;;3.67;1.40;;;;;;;;;;5092782;28;20202;-53
2022/07/14 12:37:47;;;;;;;2.13;1.37;;;;;;;;;;5092686;28;20206;-54
2022/07/14 12:40:13;;;;;;;6.50;1.70;;;;;;;;;;5090642;28;20709;-55
2022/07/14 12:42:39;;;;;;;5.50;1.13;;;;;;;;;;5092259;28;20267;-53
2022/07/14 12:45:07;;;;;;;2.47;1.27;;;;;;;;;;5092356;28;20197;-53
2022/07/14 12:47:48;;;;;;;2.43;1.20;;;;;;;;;;5092630;28;20204;-53
2022/07/14 12:50:18;;;;;;;5.03;1.37;;;;;;;;;;5092489;28;20205;-53
2022/07/14 12:52:52;;;;;;;2.97;1.37;;;;;;;;;;5092612;28;20246;-53
2022/07/14 12:55:34;;;;;;;3.17;1.60;;;;;;;;;;5092446;28;20284;-53
2022/07/14 12:58:04;;;;;;;4.63;1.90;;;;;;;;;;5092408;28;20611;-54
2022/07/14 13:00:31;;;;;;;2.20;1.33;;;;;;;;;;5092153;28;20216;-53
2022/07/14 13:03:10;;;;;;;3.07;1.50;;;;;;;;;;5091961;28;20217;-53
2022/07/14 13:05:37;;;;;;;3.93;1.50;;;;;;;;;;5091839;28;20205;-53
2022/07/14 13:08:17;;;;;;;3.00;1.30;;;;;;;;;;5092241;28;20201;-53
2022/07/14 13:10:55;;;;;;;3.93;1.53;;;;;;;;;;5091950;28;20237;-53
2022/07/14 13:13:27;;;;;;;2.87;1.83;;;;;;;;;;5092402;28;20205;-54
2022/07/14 13:15:53;;;;;;;7.30;1.70;;;;;;;;;;5092162;28;20695;-54
2022/07/14 13:18:19;;;;;;;3.13;1.43;;;;;;;;;;5092091;28;20201;-54
2022/07/14 13:20:49;;;;;;;3.27;1.70;;;;;;;;;;5092116;28;20627;-54
2022/07/14 13:23:19;;;;;;;4.03;1.57;;;;;;;;;;5095026;28;20695;-54
2022/07/14 13:25:46;;;;;;;4.03;1.60;;;;;;;;;;5096441;28;20201;-54
2022/07/14 13:28:13;;;;;;;4.70;1.40;;;;;;;;;;5096344;28;20399;-54
2022/07/14 13:30:39;;;;;;;4.23;1.40;;;;;;;;;;5096398;28;20205;-54
2022/07/14 13:33:05;;;;;;;3.97;1.43;;;;;;;;;;5096252;28;20189;-54
2022/07/14 13:35:31;;;;;;;4.13;1.90;;;;;;;;;;5096255;28;20201;-54
2022/07/14 13:37:57;;;;;;;2.63;1.40;;;;;;;;;;5096100;28;20243;-54
2022/07/14 13:40:24;;;;;;;1.63;1.10;;;;;;;;;;5096025;28;20202;-54
2022/07/14 13:42:50;;;;;;;5.40;1.30;;;;;;;;;;5095768;28;20225;-54
2022/07/14 13:45:18;;;;;;;1.80;1.23;;;;;;;;;;5095786;28;20257;-54
2022/07/14 13:47:44;;;;;;;2.43;1.40;;;;;;;;;;5095925;28;20738;-54
2022/07/14 13:52:54;;;;;;;2.13;1.10;;;;;;;;;;5095673;28;20318;-54
2022/07/14 13:55:20;;;;;;;4.37;1.30;;;;;;;;;;5095804;28;20277;-54
2022/07/14 13:57:46;;;;;;;2.57;1.00;;;;;;;;;;5095899;28;20197;-54
2022/07/14 14:00:13;;;;;;;3.00;1.20;;;;;;;;;;5095357;28;20719;-54
2022/07/14 14:05:25;;;;;;;0.80;0.70;;;;;;;;;;5095595;28;20574;-54
2022/07/14 14:07:51;;;;;;;2.20;0.87;;;;;;;;;;5095655;28;20216;-53
2022/07/14 14:10:17;;;;;;;2.70;1.20;;;;;;;;;;5095470;28;20293;-54
2022/07/14 14:12:43;;;;;;;2.17;0.90;;;;;;;;;;5095488;28;20237;-53
2022/07/14 14:15:09;;;;;;;1.30;0.90;;;;;;;;;;5095369;28;20234;-53
2022/07/14 14:17:35;;;;;;;1.60;0.90;;;;;;;;;;5095401;28;20289;-53
2022/07/14 14:20:03;;;;;;;1.43;0.90;;;;;;;;;;5095373;28;20277;-53
2022/07/14 14:22:29;;;;;;;2.07;0.83;;;;;;;;;;5094963;28;20242;-52
2022/07/14 14:24:55;;;;;;;3.70;1.03;;;;;;;;;;5095122;28;20190;-52
2022/07/14 14:27:21;;;;;;;3.37;0.97;;;;;;;;;;5095176;28;20345;-53
2022/07/14 14:29:47;;;;;;;1.67;1.10;;;;;;;;;;5095238;28;20252;-52
2022/07/14 14:32:13;;;;;;;1.00;0.70;;;;;;;;;;5094967;28;20288;-53
2022/07/14 14:34:39;;;;;;;2.53;0.87;;;;;;;;;;5094445;28;20541;-53
2022/07/14 14:37:06;;;;;;;1.70;0.90;;;;;;;;;;5094873;28;20277;-52
2022/07/14 14:39:32;;;;;;;2.67;0.90;;;;;;;;;;5095119;28;20221;-52
2022/07/14 14:41:58;;;;;;;3.57;0.93;;;;;;;;;;5094785;28;20606;-52
2022/07/14 14:44:24;;;;;;;1.87;0.80;;;;;;;;;;5094616;28;20225;-52
2022/07/14 14:46:50;;;;;;;2.30;0.87;;;;;;;;;;5094793;28;20254;-52
2022/07/14 14:49:16;;;;;;;3.50;1.00;;;;;;;;;;5094553;28;20197;-53
2022/07/14 14:51:42;;;;;;;3.73;1.00;;;;;;;;;;5094809;28;20204;-51
2022/07/14 14:54:09;;;;;;;1.70;0.70;;;;;;;;;;5094370;28;20198;-53
2022/07/14 14:56:35;;;;;;;1.90;0.90;;;;;;;;;;5094691;28;20216;-53
2022/07/14 14:59:01;;;;;;;1.20;0.87;;;;;;;;;;5094586;28;20250;-52
2022/07/14 15:01:27;;;;;;;1.43;0.80;;;;;;;;;;5088516;28;20201;-52